Time;durP1;ratioP1;P1;durP2;ratioP2;P2;SDS_P1;SDS_P2;PMS_P1;PMS_P2;Temp;Humidity;BMP_temperature;BMP_pressure;BME280_temperature;BME280_humidity;BME280_pressure;Samples;Min_cycle;Max_cycle;Signal;HPM_P1;HPM_P2
2023/04/03 00:02:07;;;;;;;1.10;1.10;;;2.80;99.90;;;;;;5041706;28;20460;-81
2023/04/03 00:04:33;;;;;;;1.10;1.10;;;2.80;99.90;;;;;;5037522;28;20147;-80
2023/04/03 00:06:59;;;;;;;1.10;1.10;;;2.80;99.90;;;;;;5040852;28;20037;-80
2023/04/03 00:09:25;;;;;;;1.25;1.25;;;2.80;99.90;;;;;;5041651;28;20052;-80
2023/04/03 00:11:50;;;;;;;1.10;1.10;;;2.80;99.90;;;;;;5039828;28;20047;-80
2023/04/03 00:14:16;;;;;;;1.00;1.00;;;2.70;99.90;;;;;;5035500;28;20068;-80
2023/04/03 00:16:42;;;;;;;1.10;1.10;;;2.70;99.90;;;;;;5022338;28;20068;-80
2023/04/03 00:19:08;;;;;;;1.10;1.10;;;2.70;99.90;;;;;;5043029;28;20045;-81
2023/04/03 00:21:33;;;;;;;1.00;1.00;;;2.70;99.90;;;;;;5048095;28;20135;-80
2023/04/03 00:23:59;;;;;;;1.20;1.20;;;2.70;99.90;;;;;;5040249;28;20123;-80
2023/04/03 00:26:25;;;;;;;1.10;1.10;;;2.70;99.90;;;;;;5038473;28;20076;-79
2023/04/03 00:28:51;;;;;;;1.00;1.00;;;2.60;99.90;;;;;;5035788;28;20041;-80
2023/04/03 00:31:17;;;;;;;1.00;1.00;;;2.60;99.90;;;;;;5037164;28;20033;-80
2023/04/03 00:33:42;;;;;;;1.00;1.00;;;2.70;99.90;;;;;;5005752;28;21993;-79
2023/04/03 00:36:10;;;;;;;1.17;1.17;;;2.70;99.90;;;;;;5017752;28;20056;-80
2023/04/03 00:38:36;;;;;;;1.00;1.00;;;2.60;99.90;;;;;;5019926;28;20098;-80
2023/04/03 00:41:02;;;;;;;1.00;1.00;;;2.70;99.90;;;;;;5021499;28;20470;-80
2023/04/03 00:43:28;;;;;;;1.00;1.00;;;2.50;99.90;;;;;;5022944;28;20060;-80
2023/04/03 00:45:57;;;;;;;1.02;1.02;;;2.50;99.90;;;;;;5038940;28;20033;-80
2023/04/03 00:48:35;;;;;;;1.00;1.00;;;2.50;99.90;;;;;;5035882;28;20037;-80
2023/04/03 00:51:03;;;;;;;1.10;1.10;;;2.50;99.90;;;;;;5021945;28;20493;-80
2023/04/03 00:53:35;;;;;;;1.00;1.00;;;2.50;99.90;;;;;;5039936;28;20041;-80
2023/04/03 00:56:01;;;;;;;1.00;1.00;;;2.40;99.90;;;;;;5036933;28;20063;-80
2023/04/03 00:58:53;;;;;;;1.00;1.00;;;2.40;99.90;;;;;;5039081;28;20115;-80
2023/04/03 01:01:23;;;;;;;0.93;0.93;;;2.30;99.90;;;;;;5036347;28;20399;-80
2023/04/03 01:03:49;;;;;;;1.00;1.00;;;2.40;99.90;;;;;;5037771;28;20606;-79
2023/04/03 01:06:20;;;;;;;0.98;0.98;;;2.40;99.90;;;;;;5020830;28;20693;-80
2023/04/03 01:08:49;;;;;;;1.00;1.00;;;2.30;99.90;;;;;;5040328;28;20041;-80
2023/04/03 01:11:14;;;;;;;0.93;0.93;;;2.30;99.90;;;;;;5022131;28;20052;-80
2023/04/03 01:13:40;;;;;;;1.00;1.00;;;2.30;99.90;;;;;;5039396;28;20049;-80
2023/04/03 01:16:07;;;;;;;0.98;0.98;;;2.30;99.90;;;;;;5019394;28;20488;-80
2023/04/03 01:18:35;;;;;;;1.00;1.00;;;2.20;99.90;;;;;;5039246;28;20151;-80
2023/04/03 01:21:10;;;;;;;0.90;0.90;;;2.20;99.90;;;;;;5019296;28;20133;-80
2023/04/03 01:23:57;;;;;;;0.90;0.90;;;2.20;99.90;;;;;;5032721;28;20569;-79
2023/04/03 01:26:23;;;;;;;0.90;0.90;;;2.20;99.90;;;;;;5035315;28;20056;-80
2023/04/03 01:28:49;;;;;;;0.90;0.90;;;2.20;99.90;;;;;;5033936;28;20068;-80
2023/04/03 01:31:44;;;;;;;0.90;0.90;;;2.20;99.90;;;;;;5017322;28;20037;-80
2023/04/03 01:34:09;;;;;;;0.90;0.90;;;2.10;99.90;;;;;;5037909;28;20107;-80
2023/04/03 01:36:35;;;;;;;0.98;0.98;;;2.10;99.90;;;;;;5021132;28;20556;-80
2023/04/03 01:39:01;;;;;;;1.00;1.00;;;2.10;99.90;;;;;;5024190;28;20041;-80
2023/04/03 01:41:28;;;;;;;0.90;0.90;;;2.10;99.90;;;;;;5039724;28;20063;-80
2023/04/03 01:43:54;;;;;;;1.00;1.00;;;2.10;99.90;;;;;;5014933;28;20051;-80
2023/04/03 01:46:20;;;;;;;0.90;0.90;;;2.10;99.90;;;;;;5034225;28;20430;-80
2023/04/03 01:48:46;;;;;;;0.90;0.90;;;2.00;99.90;;;;;;5037911;28;20084;-79
2023/04/03 01:51:12;;;;;;;1.00;1.00;;;2.00;99.90;;;;;;5019336;28;20040;-81
2023/04/03 01:53:38;;;;;;;0.90;0.90;;;2.00;99.90;;;;;;5035564;28;20037;-81
2023/04/03 01:56:04;;;;;;;0.80;0.80;;;1.90;99.90;;;;;;5019753;28;20049;-81
2023/04/03 01:58:30;;;;;;;0.90;0.90;;;1.80;99.90;;;;;;5022601;28;20482;-81
2023/04/03 02:00:55;;;;;;;0.90;0.90;;;1.70;99.90;;;;;;5021182;28;20068;-80
2023/04/03 02:03:21;;;;;;;0.90;0.90;;;1.70;99.90;;;;;;5038200;28;20048;-80
2023/04/03 02:05:47;;;;;;;0.80;0.80;;;1.60;99.90;;;;;;5017753;28;20559;-81
2023/04/03 02:08:13;;;;;;;0.90;0.90;;;1.60;99.90;;;;;;5024759;28;20569;-79
2023/04/03 02:10:39;;;;;;;0.80;0.80;;;1.50;99.90;;;;;;5034214;28;20136;-80
2023/04/03 02:13:05;;;;;;;0.90;0.90;;;1.70;99.90;;;;;;5017910;28;20048;-80
2023/04/03 02:15:30;;;;;;;0.90;0.90;;;1.70;99.90;;;;;;5029976;28;20045;-79
2023/04/03 02:17:56;;;;;;;0.90;0.90;;;1.60;99.90;;;;;;5036858;28;20068;-79
2023/04/03 02:20:22;;;;;;;0.90;0.90;;;1.60;99.90;;;;;;5009525;28;20104;-80
2023/04/03 02:22:48;;;;;;;0.85;0.85;;;1.50;99.90;;;;;;5037818;28;20690;-79
2023/04/03 02:25:14;;;;;;;0.93;0.93;;;1.60;99.90;;;;;;5020138;28;20056;-80
2023/04/03 02:27:40;;;;;;;0.90;0.90;;;1.60;99.90;;;;;;5040971;28;20064;-80
2023/04/03 02:30:06;;;;;;;0.80;0.80;;;1.50;99.90;;;;;;5025109;28;20125;-80
2023/04/03 02:32:32;;;;;;;0.90;0.90;;;1.60;99.90;;;;;;5020581;28;20056;-80
2023/04/03 02:34:58;;;;;;;0.90;0.90;;;1.60;99.90;;;;;;5038550;28;20049;-79
2023/04/03 02:37:23;;;;;;;0.90;0.90;;;1.50;99.90;;;;;;5038780;28;20037;-79
2023/04/03 02:39:49;;;;;;;0.80;0.80;;;1.50;99.90;;;;;;5023306;28;20449;-80
2023/04/03 02:42:15;;;;;;;0.90;0.90;;;1.40;99.90;;;;;;5038222;28;20076;-79
2023/04/03 02:44:41;;;;;;;0.90;0.90;;;1.40;99.90;;;;;;5032006;28;20040;-79
2023/04/03 02:47:06;;;;;;;0.85;0.85;;;1.30;99.90;;;;;;5016904;28;20048;-80
2023/04/03 02:49:32;;;;;;;0.90;0.90;;;1.30;99.90;;;;;;5041349;28;20047;-80
2023/04/03 02:51:58;;;;;;;0.80;0.80;;;1.30;99.90;;;;;;5019193;28;20048;-80
2023/04/03 02:54:27;;;;;;;0.80;0.80;;;1.20;99.90;;;;;;5018407;28;20594;-79
2023/04/03 02:56:53;;;;;;;0.80;0.80;;;1.20;99.90;;;;;;5035324;28;20047;-80
2023/04/03 02:59:19;;;;;;;0.90;0.90;;;1.20;99.90;;;;;;5039544;28;20052;-80
2023/04/03 03:01:45;;;;;;;0.80;0.80;;;1.10;99.90;;;;;;5036352;28;20235;-80
2023/04/03 03:04:11;;;;;;;0.80;0.80;;;1.10;99.90;;;;;;5037352;28;20041;-79
2023/04/03 03:06:37;;;;;;;0.80;0.80;;;1.00;99.90;;;;;;5015829;28;20036;-80
2023/04/03 03:09:03;;;;;;;0.80;0.80;;;1.00;99.90;;;;;;5038992;28;20045;-79
2023/04/03 03:11:29;;;;;;;0.80;0.80;;;1.00;99.90;;;;;;5038789;28;20541;-79
2023/04/03 03:13:55;;;;;;;0.80;0.80;;;0.80;99.90;;;;;;5043979;28;20036;-79
2023/04/03 03:16:21;;;;;;;0.80;0.80;;;0.90;99.90;;;;;;5016265;28;20048;-79
2023/04/03 03:18:47;;;;;;;0.80;0.80;;;0.80;99.90;;;;;;5035287;28;20048;-79
2023/04/03 03:21:12;;;;;;;0.80;0.80;;;0.80;99.90;;;;;;5039820;28;20037;-79
2023/04/03 03:23:38;;;;;;;0.80;0.80;;;0.80;99.90;;;;;;5037995;28;20037;-79
2023/04/03 03:26:07;;;;;;;0.80;0.80;;;0.70;99.90;;;;;;5035934;28;20045;-80
2023/04/03 03:28:33;;;;;;;0.85;0.85;;;0.80;99.90;;;;;;5040363;28;20726;-79
2023/04/03 03:30:59;;;;;;;0.80;0.80;;;0.70;99.90;;;;;;5042523;28;20072;-80
2023/04/03 03:33:25;;;;;;;0.80;0.80;;;0.70;99.90;;;;;;5043504;28;20132;-80
2023/04/03 03:35:52;;;;;;;0.80;0.80;;;0.70;99.90;;;;;;5039471;28;20032;-79
2023/04/03 03:38:18;;;;;;;0.80;0.80;;;0.60;99.90;;;;;;5023650;28;20053;-80
2023/04/03 03:40:43;;;;;;;0.70;0.70;;;0.60;99.90;;;;;;5041747;28;20044;-80
2023/04/03 03:43:09;;;;;;;0.80;0.80;;;0.60;99.90;;;;;;5016234;28;20052;-79
2023/04/03 03:45:35;;;;;;;0.80;0.80;;;0.60;99.90;;;;;;5039377;28;20045;-79
2023/04/03 03:48:01;;;;;;;0.70;0.70;;;0.60;99.90;;;;;;5040623;28;20822;-79
2023/04/03 03:50:27;;;;;;;0.80;0.80;;;0.60;99.90;;;;;;5040616;28;20041;-79
2023/04/03 03:52:52;;;;;;;0.80;0.80;;;0.60;99.90;;;;;;5042781;28;20091;-79
2023/04/03 03:55:18;;;;;;;0.70;0.70;;;0.60;99.90;;;;;;5040962;28;20725;-79
2023/04/03 03:57:44;;;;;;;0.70;0.70;;;0.60;99.90;;;;;;5043510;28;20037;-79
2023/04/03 04:00:10;;;;;;;0.70;0.70;;;0.60;99.90;;;;;;5017526;28;20451;-79
2023/04/03 04:02:36;;;;;;;0.70;0.70;;;0.60;99.90;;;;;;5038402;28;20039;-79
2023/04/03 04:05:01;;;;;;;0.70;0.70;;;0.60;99.90;;;;;;5041632;28;20045;-79
2023/04/03 04:07:29;;;;;;;0.70;0.70;;;0.50;99.90;;;;;;5040585;28;20690;-79
2023/04/03 04:09:54;;;;;;;0.70;0.70;;;0.50;99.90;;;;;;5038393;28;20049;-79
2023/04/03 04:12:20;;;;;;;0.70;0.70;;;0.50;99.90;;;;;;5037887;28;20428;-79
2023/04/03 04:14:46;;;;;;;0.70;0.70;;;0.50;99.90;;;;;;5040517;28;20063;-80
2023/04/03 04:17:13;;;;;;;0.80;0.80;;;0.40;99.90;;;;;;5035335;28;20478;-79
2023/04/03 04:19:39;;;;;;;0.80;0.80;;;0.40;99.90;;;;;;5040758;28;20041;-79
2023/04/03 04:22:05;;;;;;;0.77;0.77;;;0.30;99.90;;;;;;5004386;28;20063;-80
2023/04/03 04:24:31;;;;;;;0.75;0.75;;;0.30;99.90;;;;;;5038940;28;20088;-79
2023/04/03 04:26:56;;;;;;;0.80;0.80;;;0.40;99.90;;;;;;5039096;28;20423;-79
2023/04/03 04:29:22;;;;;;;0.75;0.75;;;0.30;99.90;;;;;;5021793;28;20115;-79
2023/04/03 04:31:48;;;;;;;0.80;0.80;;;0.30;99.90;;;;;;5022647;28;20040;-79
2023/04/03 04:34:13;;;;;;;0.70;0.70;;;0.30;99.90;;;;;;5039484;28;20062;-79
2023/04/03 04:36:39;;;;;;;0.80;0.80;;;0.30;99.90;;;;;;5034921;28;20036;-79
2023/04/03 04:39:05;;;;;;;0.80;0.80;;;0.40;99.90;;;;;;5037134;28;20112;-80
2023/04/03 04:41:31;;;;;;;0.80;0.80;;;0.30;99.90;;;;;;5039811;28;20039;-79
2023/04/03 04:43:57;;;;;;;0.80;0.80;;;0.30;99.90;;;;;;5034078;28;20090;-79
2023/04/03 04:46:23;;;;;;;0.80;0.80;;;0.20;99.90;;;;;;5037253;28;20056;-79
2023/04/03 04:48:49;;;;;;;0.80;0.80;;;0.20;99.90;;;;;;5039134;28;20052;-79
2023/04/03 04:51:15;;;;;;;0.70;0.70;;;0.20;99.90;;;;;;5040917;28;20049;-79
2023/04/03 04:53:42;;;;;;;0.80;0.80;;;0.20;99.90;;;;;;5024586;28;20478;-79
2023/04/03 04:56:08;;;;;;;0.80;0.80;;;0.20;99.90;;;;;;5039275;28;20055;-80
2023/04/03 04:58:34;;;;;;;0.80;0.80;;;0.20;99.90;;;;;;5042268;28;20132;-80
2023/04/03 05:01:01;;;;;;;0.70;0.70;;;0.20;99.90;;;;;;5041828;28;20041;-79
2023/04/03 05:03:26;;;;;;;0.70;0.70;;;0.20;99.90;;;;;;5038218;28;20095;-80
2023/04/03 05:05:52;;;;;;;0.70;0.70;;;0.20;99.90;;;;;;5020146;28;20128;-80
2023/04/03 05:08:18;;;;;;;0.70;0.70;;;0.10;99.90;;;;;;5022227;28;20040;-80
2023/04/03 05:10:45;;;;;;;0.80;0.80;;;0.20;99.90;;;;;;5039101;28;20072;-79
2023/04/03 05:13:11;;;;;;;0.80;0.80;;;0.10;99.90;;;;;;5037100;28;20072;-79
2023/04/03 05:15:37;;;;;;;0.80;0.80;;;0.10;99.90;;;;;;5038531;28;20072;-79
2023/04/03 05:18:02;;;;;;;0.80;0.80;;;0.10;99.90;;;;;;5039713;28;20096;-79
2023/04/03 05:20:28;;;;;;;0.85;0.85;;;0.10;99.90;;;;;;5041541;28;20123;-80
2023/04/03 05:22:54;;;;;;;0.75;0.75;;;0.10;99.90;;;;;;5039482;28;20039;-80
2023/04/03 05:25:20;;;;;;;0.80;0.80;;;0.10;99.90;;;;;;5038450;28;20517;-79
2023/04/03 05:27:45;;;;;;;0.80;0.80;;;0.20;99.90;;;;;;5018755;28;20609;-79
2023/04/03 05:30:11;;;;;;;0.80;0.80;;;0.80;99.90;;;;;;5006405;28;20397;-79
2023/04/03 05:32:37;;;;;;;0.80;0.80;;;1.60;99.90;;;;;;5006584;28;20041;-80
2023/04/03 05:35:05;;;;;;;0.70;0.70;;;2.10;99.90;;;;;;5011841;28;20106;-79
2023/04/03 05:37:31;;;;;;;0.70;0.70;;;2.70;99.90;;;;;;5007887;28;20083;-78
2023/04/03 05:39:56;;;;;;;0.70;0.70;;;2.90;99.90;;;;;;5011880;28;20465;-80
2023/04/03 05:42:22;;;;;;;0.80;0.80;;;3.20;99.90;;;;;;5014093;28;20048;-81
2023/04/03 05:44:49;;;;;;;0.80;0.80;;;3.80;99.90;;;;;;5007039;28;20049;-80
2023/04/03 05:47:16;;;;;;;0.70;0.70;;;4.00;99.90;;;;;;5013095;28;20040;-81
2023/04/03 05:49:42;;;;;;;0.70;0.70;;;3.90;99.90;;;;;;5027854;28;20144;-77
2023/04/03 05:52:17;;;;;;;0.80;0.80;;;4.10;99.90;;;;;;5022022;28;20063;-77
2023/04/03 05:54:44;;;;;;;0.70;0.70;;;4.40;99.90;;;;;;5017699;28;20037;-80
2023/04/03 05:57:09;;;;;;;0.70;0.70;;;3.30;99.90;;;;;;5027584;28;20041;-80
2023/04/03 05:59:35;;;;;;;0.70;0.70;;;2.50;99.90;;;;;;5009601;28;20562;-79
2023/04/03 06:02:01;;;;;;;0.70;0.70;;;2.10;99.90;;;;;;5013784;28;20484;-80
2023/04/03 06:04:27;;;;;;;0.70;0.70;;;2.10;99.90;;;;;;5012193;28;20049;-79
2023/04/03 06:06:57;;;;;;;0.70;0.70;;;1.90;99.90;;;;;;5006940;28;20427;-80
2023/04/03 06:09:28;;;;;;;0.70;0.70;;;2.00;99.90;;;;;;5022430;28;20041;-79
2023/04/03 06:11:54;;;;;;;0.80;0.80;;;1.80;99.90;;;;;;5024752;28;20120;-80
2023/04/03 06:14:20;;;;;;;0.70;0.70;;;1.90;99.90;;;;;;5008569;28;20278;-79
2023/04/03 06:16:45;;;;;;;0.70;0.70;;;2.20;99.90;;;;;;5023970;28;20549;-79
2023/04/03 06:19:12;;;;;;;0.70;0.70;;;2.20;99.90;;;;;;5021006;28;20115;-79
2023/04/03 06:21:38;;;;;;;0.70;0.70;;;2.10;99.90;;;;;;5003292;28;20099;-79
2023/04/03 06:24:05;;;;;;;0.70;0.70;;;2.20;99.90;;;;;;4980073;28;20053;-79
2023/04/03 06:26:31;;;;;;;0.70;0.70;;;2.30;99.90;;;;;;5007416;28;20175;-80
2023/04/03 06:28:57;;;;;;;0.73;0.73;;;2.20;99.90;;;;;;5025185;28;20386;-79
2023/04/03 06:31:23;;;;;;;0.70;0.70;;;2.30;99.90;;;;;;5024513;28;20043;-79
2023/04/03 06:33:49;;;;;;;0.70;0.70;;;2.40;99.90;;;;;;5029484;28;20045;-81
2023/04/03 06:36:19;;;;;;;0.80;0.80;;;2.60;99.90;;;;;;5005738;28;20124;-79
2023/04/03 06:38:45;;;;;;;0.80;0.80;;;2.40;99.90;;;;;;5006876;28;20041;-79
2023/04/03 06:41:12;;;;;;;0.70;0.70;;;2.60;99.90;;;;;;5016802;28;20892;-79
2023/04/03 06:43:37;;;;;;;0.70;0.70;;;2.70;99.90;;;;;;5025350;28;20041;-80
2023/04/03 06:46:03;;;;;;;0.70;0.70;;;2.80;99.90;;;;;;5009628;28;20052;-79
2023/04/03 06:48:29;;;;;;;0.70;0.70;;;2.90;99.90;;;;;;5031369;28;20033;-79
2023/04/03 06:50:55;;;;;;;0.80;0.80;;;2.80;99.90;;;;;;5023440;28;20099;-79
2023/04/03 06:53:21;;;;;;;0.80;0.80;;;2.80;99.90;;;;;;5018701;28;20048;-79
2023/04/03 06:55:47;;;;;;;0.70;0.70;;;2.90;99.90;;;;;;5018420;28;20693;-79
2023/04/03 06:58:15;;;;;;;0.70;0.70;;;3.00;99.90;;;;;;5039203;28;20121;-79
2023/04/03 07:00:41;;;;;;;0.80;0.80;;;3.20;99.90;;;;;;5036485;28;20047;-78
2023/04/03 07:03:06;;;;;;;0.80;0.80;;;3.30;99.90;;;;;;5012679;28;20053;-80
2023/04/03 07:05:32;;;;;;;0.70;0.70;;;3.30;99.90;;;;;;5004409;28;20421;-80
2023/04/03 07:07:58;;;;;;;0.70;0.70;;;3.50;99.90;;;;;;5027599;28;20417;-78
2023/04/03 07:10:23;;;;;;;0.70;0.70;;;3.40;99.90;;;;;;5020436;28;20041;-80
2023/04/03 07:12:49;;;;;;;0.70;0.70;;;3.40;99.90;;;;;;5022772;28;20418;-79
2023/04/03 07:15:15;;;;;;;0.70;0.70;;;3.50;99.90;;;;;;5039343;28;20111;-80
2023/04/03 07:17:41;;;;;;;0.70;0.70;;;3.40;99.90;;;;;;5020123;28;20696;-79
2023/04/03 07:20:08;;;;;;;0.70;0.70;;;3.70;99.90;;;;;;5022485;28;20087;-79
2023/04/03 07:22:33;;;;;;;0.70;0.70;;;3.80;99.90;;;;;;5039214;28;20051;-80
2023/04/03 07:24:59;;;;;;;0.70;0.70;;;4.00;99.90;;;;;;5019178;28;20033;-79
2023/04/03 07:27:25;;;;;;;0.70;0.70;;;4.00;99.90;;;;;;5018064;28;20124;-79
2023/04/03 07:29:51;;;;;;;0.70;0.70;;;4.20;99.90;;;;;;5006445;28;20088;-79
2023/04/03 07:32:17;;;;;;;0.70;0.70;;;4.20;99.90;;;;;;5014196;28;20167;-79
2023/04/03 07:34:43;;;;;;;0.80;0.80;;;4.40;99.90;;;;;;5031079;28;20525;-80
2023/04/03 07:37:09;;;;;;;0.70;0.70;;;4.60;99.90;;;;;;5011588;28;20134;-79
2023/04/03 07:39:35;;;;;;;0.70;0.70;;;4.40;99.90;;;;;;5033945;28;20123;-80
2023/04/03 07:42:01;;;;;;;0.70;0.70;;;4.30;99.90;;;;;;5013525;28;20462;-80
2023/04/03 07:44:27;;;;;;;0.63;0.63;;;4.50;99.90;;;;;;5012978;28;20492;-79
2023/04/03 07:47:13;;;;;;;0.70;0.70;;;4.80;99.90;;;;;;4996213;28;20131;-79
2023/04/03 07:49:40;;;;;;;0.70;0.70;;;5.20;99.90;;;;;;5013758;28;20045;-80
2023/04/03 07:52:07;;;;;;;0.63;0.63;;;5.40;99.90;;;;;;5014886;28;20044;-79
2023/04/03 07:54:33;;;;;;;0.70;0.70;;;5.30;99.90;;;;;;5030772;28;20044;-81
2023/04/03 07:56:59;;;;;;;0.70;0.70;;;5.10;99.90;;;;;;5009456;28;20052;-79
2023/04/03 07:59:24;;;;;;;0.65;0.65;;;5.40;99.90;;;;;;5015095;28;20049;-81
2023/04/03 08:01:50;;;;;;;0.60;0.60;;;5.20;99.90;;;;;;5015595;28;20107;-79
2023/04/03 08:04:16;;;;;;;0.70;0.70;;;4.80;99.90;;;;;;5008108;28;20077;-78
2023/04/03 08:06:41;;;;;;;0.70;0.70;;;5.10;99.90;;;;;;5003838;28;20120;-78
2023/04/03 08:09:08;;;;;;;0.70;0.70;;;5.40;99.90;;;;;;5019389;28;20049;-80
2023/04/03 08:11:33;;;;;;;0.70;0.70;;;5.30;99.90;;;;;;5025019;28;20386;-80
2023/04/03 08:13:59;;;;;;;0.70;0.70;;;5.40;99.90;;;;;;5014017;28;20063;-79
2023/04/03 08:16:26;;;;;;;0.70;0.70;;;5.80;99.90;;;;;;5030863;28;20048;-80
2023/04/03 08:18:53;;;;;;;0.70;0.70;;;5.80;99.90;;;;;;5035850;28;20091;-80
2023/04/03 08:21:18;;;;;;;0.68;0.68;;;5.60;99.90;;;;;;5019762;28;20056;-80
2023/04/03 08:23:44;;;;;;;0.70;0.70;;;6.20;99.90;;;;;;5025432;28;20037;-80
2023/04/03 08:26:12;;;;;;;0.70;0.70;;;6.10;99.90;;;;;;5015475;28;20509;-79
2023/04/03 08:28:39;;;;;;;0.70;0.70;;;5.60;99.90;;;;;;5013594;28;21485;-80
2023/04/03 08:31:07;;;;;;;0.70;0.70;;;5.80;99.90;;;;;;5015660;28;20048;-81
2023/04/03 08:33:35;;;;;;;0.60;0.60;;;5.70;99.90;;;;;;5015366;28;20108;-80
2023/04/03 08:36:01;;;;;;;0.60;0.60;;;5.90;99.90;;;;;;5009424;28;20045;-80
2023/04/03 08:38:27;;;;;;;0.70;0.70;;;6.10;99.90;;;;;;5019231;28;20103;-81
2023/04/03 08:41:19;;;;;;;0.70;0.70;;;5.60;99.90;;;;;;5020578;28;20049;-80
2023/04/03 08:44:02;;;;;;;0.68;0.68;;;6.00;99.90;;;;;;5029421;28;20087;-80
2023/04/03 08:46:43;;;;;;;0.70;0.70;;;6.10;99.90;;;;;;5000211;28;20052;-79
2023/04/03 08:49:54;;;;;;;0.70;0.70;;;6.20;99.90;;;;;;5017451;28;20048;-80
2023/04/03 08:52:28;;;;;;;0.70;0.70;;;5.80;99.90;;;;;;4957234;28;20380;-80
2023/04/03 08:54:57;;;;;;;0.60;0.60;;;6.50;99.90;;;;;;5000265;28;20045;-80
2023/04/03 08:57:30;;;;;;;0.60;0.60;;;6.80;99.90;;;;;;5019336;28;20041;-80
2023/04/03 09:00:00;;;;;;;0.70;0.70;;;7.20;99.90;;;;;;5013202;28;20116;-79
2023/04/03 09:02:42;;;;;;;0.60;0.60;;;7.30;99.90;;;;;;5024801;28;20053;-80
2023/04/03 09:05:38;;;;;;;0.70;0.70;;;7.20;99.90;;;;;;5018161;28;20355;-80
2023/04/03 09:08:25;;;;;;;0.60;0.60;;;7.70;99.90;;;;;;4979542;28;20080;-79
2023/04/03 09:11:07;;;;;;;0.70;0.70;;;7.10;99.90;;;;;;5014248;28;20061;-79
2023/04/03 09:13:49;;;;;;;0.70;0.70;;;6.90;99.90;;;;;;5018058;28;20059;-81
2023/04/03 09:16:53;;;;;;;0.70;0.70;;;6.60;99.90;;;;;;5032432;28;20528;-80
2023/04/03 09:19:32;;;;;;;0.70;0.70;;;6.60;99.90;;;;;;5016549;28;20093;-79
2023/04/03 09:22:21;;;;;;;0.60;0.60;;;6.40;99.90;;;;;;5007249;28;20040;-79
2023/04/03 09:24:55;;;;;;;0.70;0.70;;;7.00;99.90;;;;;;5031487;28;20103;-78
2023/04/03 09:27:21;;;;;;;0.70;0.70;;;6.70;99.90;;;;;;5016005;28;20041;-80
2023/04/03 09:29:48;;;;;;;0.70;0.70;;;6.80;99.90;;;;;;5013527;28;20798;-80
2023/04/03 09:32:30;;;;;;;0.70;0.70;;;7.30;99.90;;;;;;5013764;28;20051;-79
2023/04/03 09:35:03;;;;;;;0.70;0.70;;;7.40;99.90;;;;;;5017156;28;20049;-81
2023/04/03 09:37:43;;;;;;;0.70;0.70;;;7.90;99.90;;;;;;5018268;28;20048;-81
2023/04/03 09:40:28;;;;;;;0.60;0.60;;;8.00;99.90;;;;;;5025872;28;20385;-81
2023/04/03 09:42:57;;;;;;;0.68;0.68;;;7.00;96.60;;;;;;5018964;28;20064;-81
2023/04/03 09:45:34;;;;;;;0.70;0.70;;;7.20;99.80;;;;;;5015296;28;20043;-80
2023/04/03 09:48:13;;;;;;;0.70;0.70;;;6.90;97.80;;;;;;5029800;28;20037;-80
2023/04/03 09:51:04;;;;;;;0.70;0.70;;;7.90;99.90;;;;;;5017876;28;20049;-80
2023/04/03 09:53:35;;;;;;;0.70;0.70;;;7.90;99.90;;;;;;5018266;28;20049;-81
2023/04/03 09:56:03;;;;;;;0.70;0.70;;;8.00;99.90;;;;;;5006350;28;20057;-81
2023/04/03 09:58:33;;;;;;;0.70;0.70;;;8.50;99.90;;;;;;5018312;28;20490;-80
2023/04/03 10:01:01;;;;;;;0.70;0.70;;;8.20;99.90;;;;;;4997994;28;20052;-80
2023/04/03 10:03:36;;;;;;;0.70;0.70;;;8.90;99.90;;;;;;5017080;28;20044;-80
2023/04/03 10:06:24;;;;;;;0.70;0.70;;;8.40;99.50;;;;;;5009913;28;20517;-80
2023/04/03 10:09:04;;;;;;;0.70;0.70;;;8.50;99.90;;;;;;5014501;28;20321;-80
2023/04/03 10:11:30;;;;;;;0.70;0.70;;;9.10;99.90;;;;;;5016103;28;20045;-80
2023/04/03 10:14:00;;;;;;;0.70;0.70;;;8.90;99.90;;;;;;5013164;28;20044;-80
2023/04/03 10:16:36;;;;;;;0.70;0.70;;;9.00;99.90;;;;;;5015183;28;20057;-82
2023/04/03 10:19:24;;;;;;;0.80;0.80;;;8.50;99.00;;;;;;5015804;28;20041;-81
2023/04/03 10:21:58;;;;;;;0.80;0.80;;;8.70;97.50;;;;;;5016158;28;20847;-81
2023/04/03 10:24:44;;;;;;;0.80;0.80;;;8.20;98.70;;;;;;5019544;28;20076;-80
2023/04/03 10:27:16;;;;;;;0.70;0.70;;;8.20;98.20;;;;;;5013020;28;20037;-81
2023/04/03 10:29:51;;;;;;;0.70;0.70;;;8.10;99.90;;;;;;4998746;28;20036;-81
2023/04/03 10:32:49;;;;;;;0.70;0.70;;;8.80;99.90;;;;;;5018317;28;20069;-79
2023/04/03 10:35:41;;;;;;;0.70;0.70;;;8.60;99.90;;;;;;5004093;28;20429;-81
2023/04/03 10:38:23;;;;;;;0.70;0.70;;;9.40;99.90;;;;;;5018730;28;20053;-81
2023/04/03 10:41:07;;;;;;;0.70;0.70;;;9.10;99.90;;;;;;5019541;28;20045;-81
2023/04/03 10:44:11;;;;;;;0.70;0.70;;;8.80;97.20;;;;;;5005203;28;20549;-81
2023/04/03 10:46:48;;;;;;;0.80;0.80;;;9.00;99.90;;;;;;5015863;28;20140;-80
2023/04/03 10:49:42;;;;;;;0.70;0.70;;;9.30;99.90;;;;;;5018323;28;20660;-79
2023/04/03 10:52:28;;;;;;;0.70;0.70;;;9.20;99.90;;;;;;5021641;28;20627;-78
2023/04/03 10:55:20;;;;;;;0.70;0.70;;;8.50;97.80;;;;;;5016089;28;20045;-80
2023/04/03 10:57:49;;;;;;;0.70;0.70;;;9.60;99.90;;;;;;5019472;28;20549;-81
2023/04/03 11:00:19;;;;;;;0.80;0.80;;;8.50;96.10;;;;;;5020420;28;20068;-80
2023/04/03 11:02:50;;;;;;;0.70;0.70;;;8.40;97.50;;;;;;5021754;28;20056;-79
2023/04/03 11:05:26;;;;;;;0.70;0.70;;;8.70;98.10;;;;;;5002160;28;20492;-80
2023/04/03 11:07:55;;;;;;;0.80;0.80;;;8.70;98.90;;;;;;5022002;28;20045;-80
2023/04/03 11:10:51;;;;;;;0.80;0.80;;;9.10;99.90;;;;;;5022054;28;20060;-80
2023/04/03 11:13:42;;;;;;;0.73;0.73;;;8.70;95.60;;;;;;5012706;28;20061;-79
2023/04/03 11:16:09;;;;;;;0.70;0.70;;;8.40;94.70;;;;;;5018854;28;20072;-81
2023/04/03 11:18:44;;;;;;;0.80;0.80;;;8.50;94.40;;;;;;5021688;28;20041;-80
2023/04/03 11:21:48;;;;;;;0.80;0.80;;;8.30;93.80;;;;;;5020318;28;20152;-81
2023/04/03 11:24:24;;;;;;;0.80;0.80;;;8.80;95.20;;;;;;5018592;28;20041;-80
2023/04/03 11:26:52;;;;;;;0.70;0.70;;;9.00;98.30;;;;;;5031555;28;20098;-80
2023/04/03 11:29:23;;;;;;;0.70;0.70;;;9.30;98.80;;;;;;5021227;28;20140;-80
2023/04/03 11:32:13;;;;;;;0.60;0.60;;;9.80;96.40;;;;;;5019447;28;20119;-80
2023/04/03 11:34:45;;;;;;;0.60;0.60;;;9.00;96.00;;;;;;5019596;28;20036;-82
2023/04/03 11:37:44;;;;;;;0.63;0.63;;;9.70;99.90;;;;;;5018986;28;20072;-80
2023/04/03 11:40:17;;;;;;;0.60;0.60;;;8.90;93.10;;;;;;5024046;28;20595;-78
2023/04/03 11:42:48;;;;;;;0.70;0.70;;;8.70;94.80;;;;;;5017193;28;20060;-79
2023/04/03 11:45:26;;;;;;;0.70;0.70;;;9.50;98.40;;;;;;4996270;28;20071;-79
2023/04/03 11:47:58;;;;;;;0.70;0.70;;;8.90;94.60;;;;;;5021365;28;20045;-79
2023/04/03 11:50:42;;;;;;;0.70;0.70;;;9.40;96.70;;;;;;5039992;28;20052;-79
2023/04/03 11:53:10;;;;;;;0.70;0.70;;;9.30;96.80;;;;;;5027858;28;22209;-78
2023/04/03 11:55:51;;;;;;;0.70;0.70;;;9.30;95.60;;;;;;5017119;28;20047;-79
2023/04/03 11:58:19;;;;;;;0.70;0.70;;;9.20;96.70;;;;;;5024548;28;20091;-80
2023/04/03 12:00:49;;;;;;;0.60;0.60;;;9.10;94.60;;;;;;5021162;28;20051;-80
2023/04/03 12:03:27;;;;;;;0.70;0.70;;;9.20;99.60;;;;;;5024118;28;20053;-79
2023/04/03 12:06:11;;;;;;;0.60;0.60;;;8.60;94.60;;;;;;5021588;28;20609;-78
2023/04/03 12:08:40;;;;;;;0.70;0.70;;;9.50;99.60;;;;;;5009884;28;20088;-80
2023/04/03 12:11:08;;;;;;;0.70;0.70;;;9.50;97.40;;;;;;5020897;28;20055;-79
2023/04/03 12:13:52;;;;;;;0.70;0.70;;;9.20;94.00;;;;;;5009313;28;20060;-79
2023/04/03 12:16:27;;;;;;;0.70;0.70;;;9.40;95.70;;;;;;5008383;28;20037;-81
2023/04/03 12:18:53;;;;;;;0.60;0.60;;;9.80;96.90;;;;;;5002349;28;20160;-80
2023/04/03 12:21:21;;;;;;;0.60;0.60;;;9.40;95.50;;;;;;5014792;28;20058;-80
2023/04/03 12:23:56;;;;;;;0.60;0.60;;;9.30;94.50;;;;;;5019573;28;20048;-80
2023/04/03 12:26:26;;;;;;;0.60;0.60;;;9.40;95.20;;;;;;5015703;28;20067;-79
2023/04/03 12:28:53;;;;;;;0.60;0.60;;;9.70;97.50;;;;;;5027530;28;20431;-80
2023/04/03 12:31:22;;;;;;;0.70;0.70;;;10.40;99.90;;;;;;4991467;28;20512;-80
2023/04/03 12:34:22;;;;;;;0.60;0.60;;;9.80;98.50;;;;;;5008700;28;20071;-80
2023/04/03 12:37:01;;;;;;;0.60;0.60;;;10.00;95.80;;;;;;5022060;28;20982;-80
2023/04/03 12:39:45;;;;;;;0.60;0.60;;;10.30;98.90;;;;;;5038755;28;20128;-79
2023/04/03 12:42:54;;;;;;;0.60;0.60;;;10.90;99.90;;;;;;5013997;28;20037;-80
2023/04/03 12:45:25;;;;;;;0.60;0.60;;;10.10;99.90;;;;;;5018880;28;20069;-80
2023/04/03 12:47:56;;;;;;;0.60;0.60;;;9.50;92.60;;;;;;5021207;28;20044;-79
2023/04/03 12:50:33;;;;;;;0.60;0.60;;;9.50;96.00;;;;;;5005943;28;20048;-79
2023/04/03 12:53:06;;;;;;;0.60;0.60;;;9.10;94.20;;;;;;5014969;28;20029;-79
2023/04/03 12:55:32;;;;;;;0.60;0.60;;;9.80;99.90;;;;;;5017954;28;20470;-80
2023/04/03 12:58:24;;;;;;;0.60;0.60;;;9.80;96.40;;;;;;4999695;28;20092;-79
2023/04/03 13:01:02;;;;;;;0.60;0.60;;;10.00;95.30;;;;;;4991371;28;20528;-79
2023/04/03 13:03:28;;;;;;;0.55;0.55;;;9.50;94.60;;;;;;4989810;28;20815;-79
2023/04/03 13:06:01;;;;;;;0.60;0.60;;;10.10;99.90;;;;;;5009232;28;20049;-80
2023/04/03 13:08:28;;;;;;;0.60;0.60;;;10.20;98.40;;;;;;5028146;28;20032;-79
2023/04/03 13:11:00;;;;;;;0.50;0.50;;;10.00;95.90;;;;;;5038526;28;20538;-80
2023/04/03 13:13:26;;;;;;;0.60;0.60;;;9.60;92.90;;;;;;5017080;28;20049;-79
2023/04/03 13:15:53;;;;;;;0.52;0.52;;;9.60;93.80;;;;;;5014331;28;20049;-79